sensor_id;sensor_type;location;lat;lon;timestamp;temperature;humidity
9103;DHT22;4587;51.434;6.788;2023-06-26T00:01:57;24.50;99.90
9103;DHT22;4587;51.434;6.788;2023-06-26T00:04:23;24.50;99.90
9103;DHT22;4587;51.434;6.788;2023-06-26T00:06:48;24.60;99.90
9103;DHT22;4587;51.434;6.788;2023-06-26T00:09:14;24.50;99.90
9103;DHT22;4587;51.434;6.788;2023-06-26T00:11:39;24.50;99.90
9103;DHT22;4587;51.434;6.788;2023-06-26T00:14:05;24.50;99.90
9103;DHT22;4587;51.434;6.788;2023-06-26T00:16:31;24.40;99.90
9103;DHT22;4587;51.434;6.788;2023-06-26T00:18:57;24.40;99.90
9103;DHT22;4587;51.434;6.788;2023-06-26T00:21:24;24.30;99.90
9103;DHT22;4587;51.434;6.788;2023-06-26T00:23:50;24.40;99.90
9103;DHT22;4587;51.434;6.788;2023-06-26T00:26:16;24.10;99.90
9103;DHT22;4587;51.434;6.788;2023-06-26T00:28:42;24.40;99.90
9103;DHT22;4587;51.434;6.788;2023-06-26T00:31:07;24.50;99.90
9103;DHT22;4587;51.434;6.788;2023-06-26T00:33:33;24.30;99.90
9103;DHT22;4587;51.434;6.788;2023-06-26T00:35:59;24.10;99.90
9103;DHT22;4587;51.434;6.788;2023-06-26T00:38:24;24.40;99.90
9103;DHT22;4587;51.434;6.788;2023-06-26T00:40:50;24.10;99.90
9103;DHT22;4587;51.434;6.788;2023-06-26T00:43:15;24.10;99.90
9103;DHT22;4587;51.434;6.788;2023-06-26T00:45:41;24.10;99.90
9103;DHT22;4587;51.434;6.788;2023-06-26T00:48:06;24.10;99.90
9103;DHT22;4587;51.434;6.788;2023-06-26T00:50:32;24.00;99.90
9103;DHT22;4587;51.434;6.788;2023-06-26T00:55:27;23.90;99.90
9103;DHT22;4587;51.434;6.788;2023-06-26T00:57:53;23.70;99.90
9103;DHT22;4587;51.434;6.788;2023-06-26T01:00:20;24.00;99.90
9103;DHT22;4587;51.434;6.788;2023-06-26T01:02:45;23.80;99.90
9103;DHT22;4587;51.434;6.788;2023-06-26T01:05:12;23.70;99.90
9103;DHT22;4587;51.434;6.788;2023-06-26T01:07:38;23.70;99.90
9103;DHT22;4587;51.434;6.788;2023-06-26T01:12:32;23.70;99.90
9103;DHT22;4587;51.434;6.788;2023-06-26T01:14:59;23.40;99.90
9103;DHT22;4587;51.434;6.788;2023-06-26T01:17:28;23.80;99.90
9103;DHT22;4587;51.434;6.788;2023-06-26T01:20:00;23.90;99.90
9103;DHT22;4587;51.434;6.788;2023-06-26T01:25:21;23.60;99.90
9103;DHT22;4587;51.434;6.788;2023-06-26T01:27:52;23.60;99.90
9103;DHT22;4587;51.434;6.788;2023-06-26T01:30:20;23.50;99.90
9103;DHT22;4587;51.434;6.788;2023-06-26T01:32:46;23.40;99.90
9103;DHT22;4587;51.434;6.788;2023-06-26T01:35:13;23.50;99.90
9103;DHT22;4587;51.434;6.788;2023-06-26T01:37:39;23.60;99.90
9103;DHT22;4587;51.434;6.788;2023-06-26T01:40:05;23.50;99.90
9103;DHT22;4587;51.434;6.788;2023-06-26T01:42:33;23.40;99.90
9103;DHT22;4587;51.434;6.788;2023-06-26T01:45:02;23.30;99.90
9103;DHT22;4587;51.434;6.788;2023-06-26T01:47:31;23.40;99.90
9103;DHT22;4587;51.434;6.788;2023-06-26T01:50:12;23.40;99.90
9103;DHT22;4587;51.434;6.788;2023-06-26T01:52:49;23.20;99.90
9103;DHT22;4587;51.434;6.788;2023-06-26T01:58:01;23.30;99.90
9103;DHT22;4587;51.434;6.788;2023-06-26T02:02:53;23.00;99.90
9103;DHT22;4587;51.434;6.788;2023-06-26T02:05:19;23.00;99.90
9103;DHT22;4587;51.434;6.788;2023-06-26T02:07:45;23.00;99.90
9103;DHT22;4587;51.434;6.788;2023-06-26T02:10:11;23.10;99.90
9103;DHT22;4587;51.434;6.788;2023-06-26T02:12:37;23.00;99.90
9103;DHT22;4587;51.434;6.788;2023-06-26T02:15:03;22.90;99.90
9103;DHT22;4587;51.434;6.788;2023-06-26T02:17:30;22.90;99.90
9103;DHT22;4587;51.434;6.788;2023-06-26T02:19:55;22.90;99.90
9103;DHT22;4587;51.434;6.788;2023-06-26T02:22:21;22.90;99.90
9103;DHT22;4587;51.434;6.788;2023-06-26T02:24:46;23.00;99.90
9103;DHT22;4587;51.434;6.788;2023-06-26T02:27:12;22.90;99.90
9103;DHT22;4587;51.434;6.788;2023-06-26T02:29:38;22.80;99.90
9103;DHT22;4587;51.434;6.788;2023-06-26T02:32:04;22.80;99.90
9103;DHT22;4587;51.434;6.788;2023-06-26T02:34:30;22.80;99.90
9103;DHT22;4587;51.434;6.788;2023-06-26T02:36:56;22.80;99.90
9103;DHT22;4587;51.434;6.788;2023-06-26T02:39:22;22.80;99.90
9103;DHT22;4587;51.434;6.788;2023-06-26T02:41:47;22.80;99.90
9103;DHT22;4587;51.434;6.788;2023-06-26T02:44:13;22.80;99.90
9103;DHT22;4587;51.434;6.788;2023-06-26T02:46:40;22.70;99.90
9103;DHT22;4587;51.434;6.788;2023-06-26T02:49:06;22.70;99.90
9103;DHT22;4587;51.434;6.788;2023-06-26T02:51:32;22.70;99.90
9103;DHT22;4587;51.434;6.788;2023-06-26T02:53:58;22.70;99.90
9103;DHT22;4587;51.434;6.788;2023-06-26T02:56:23;22.80;99.90
9103;DHT22;4587;51.434;6.788;2023-06-26T02:58:49;22.70;99.90
9103;DHT22;4587;51.434;6.788;2023-06-26T03:01:15;22.70;99.90
9103;DHT22;4587;51.434;6.788;2023-06-26T03:03:41;22.70;99.90
9103;DHT22;4587;51.434;6.788;2023-06-26T03:06:07;22.70;99.90
9103;DHT22;4587;51.434;6.788;2023-06-26T03:08:36;22.80;99.90
9103;DHT22;4587;51.434;6.788;2023-06-26T03:11:02;22.80;99.90
9103;DHT22;4587;51.434;6.788;2023-06-26T03:13:27;22.90;99.90
9103;DHT22;4587;51.434;6.788;2023-06-26T03:15:53;22.90;99.90
9103;DHT22;4587;51.434;6.788;2023-06-26T03:18:18;23.00;99.90
9103;DHT22;4587;51.434;6.788;2023-06-26T03:20:44;23.00;99.90
9103;DHT22;4587;51.434;6.788;2023-06-26T03:23:09;23.00;99.90
9103;DHT22;4587;51.434;6.788;2023-06-26T03:25:35;23.00;99.90
9103;DHT22;4587;51.434;6.788;2023-06-26T03:28:01;23.00;99.90
9103;DHT22;4587;51.434;6.788;2023-06-26T03:30:26;22.90;99.90
9103;DHT22;4587;51.434;6.788;2023-06-26T03:32:52;23.00;99.90
9103;DHT22;4587;51.434;6.788;2023-06-26T03:35:17;22.90;99.90
9103;DHT22;4587;51.434;6.788;2023-06-26T03:37:43;22.90;99.90
9103;DHT22;4587;51.434;6.788;2023-06-26T03:40:09;23.00;99.90
9103;DHT22;4587;51.434;6.788;2023-06-26T03:42:35;23.00;99.90
9103;DHT22;4587;51.434;6.788;2023-06-26T03:45:00;23.00;99.90
9103;DHT22;4587;51.434;6.788;2023-06-26T03:47:26;23.00;99.90
9103;DHT22;4587;51.434;6.788;2023-06-26T03:49:51;23.00;99.90
9103;DHT22;4587;51.434;6.788;2023-06-26T03:52:17;23.00;99.90
9103;DHT22;4587;51.434;6.788;2023-06-26T03:54:42;22.90;99.90
9103;DHT22;4587;51.434;6.788;2023-06-26T03:57:08;22.90;99.90
9103;DHT22;4587;51.434;6.788;2023-06-26T03:59:34;23.00;99.90
9103;DHT22;4587;51.434;6.788;2023-06-26T04:01:59;23.00;99.90
9103;DHT22;4587;51.434;6.788;2023-06-26T04:04:26;22.90;99.90
9103;DHT22;4587;51.434;6.788;2023-06-26T04:06:52;23.00;99.90
9103;DHT22;4587;51.434;6.788;2023-06-26T04:09:17;23.20;99.90
9103;DHT22;4587;51.434;6.788;2023-06-26T04:11:44;23.20;99.90
9103;DHT22;4587;51.434;6.788;2023-06-26T04:14:10;23.20;99.90
9103;DHT22;4587;51.434;6.788;2023-06-26T04:16:36;23.10;99.90
9103;DHT22;4587;51.434;6.788;2023-06-26T04:19:01;23.10;99.90
9103;DHT22;4587;51.434;6.788;2023-06-26T04:21:28;23.10;99.90
9103;DHT22;4587;51.434;6.788;2023-06-26T04:23:53;23.10;99.90
9103;DHT22;4587;51.434;6.788;2023-06-26T04:26:19;23.10;99.90
9103;DHT22;4587;51.434;6.788;2023-06-26T04:28:45;23.10;99.90
9103;DHT22;4587;51.434;6.788;2023-06-26T04:31:10;23.20;99.90
9103;DHT22;4587;51.434;6.788;2023-06-26T04:33:37;23.10;99.90
9103;DHT22;4587;51.434;6.788;2023-06-26T04:36:04;23.10;99.90
9103;DHT22;4587;51.434;6.788;2023-06-26T04:38:30;23.10;99.90
9103;DHT22;4587;51.434;6.788;2023-06-26T04:40:56;23.20;99.90
9103;DHT22;4587;51.434;6.788;2023-06-26T04:43:21;23.20;99.90
9103;DHT22;4587;51.434;6.788;2023-06-26T04:45:47;23.20;99.90
9103;DHT22;4587;51.434;6.788;2023-06-26T04:48:13;23.10;99.90
9103;DHT22;4587;51.434;6.788;2023-06-26T04:50:40;23.20;99.90
9103;DHT22;4587;51.434;6.788;2023-06-26T04:53:05;23.30;99.90
9103;DHT22;4587;51.434;6.788;2023-06-26T04:55:31;23.30;99.90
9103;DHT22;4587;51.434;6.788;2023-06-26T04:57:57;23.40;99.90
9103;DHT22;4587;51.434;6.788;2023-06-26T05:00:22;23.40;99.90
9103;DHT22;4587;51.434;6.788;2023-06-26T05:02:50;23.50;99.90
9103;DHT22;4587;51.434;6.788;2023-06-26T05:05:24;23.50;99.90
9103;DHT22;4587;51.434;6.788;2023-06-26T05:07:52;23.50;99.90
9103;DHT22;4587;51.434;6.788;2023-06-26T05:10:17;23.60;99.90
9103;DHT22;4587;51.434;6.788;2023-06-26T05:12:43;23.60;99.90
9103;DHT22;4587;51.434;6.788;2023-06-26T05:15:09;23.80;99.90
9103;DHT22;4587;51.434;6.788;2023-06-26T05:17:34;23.70;99.90
9103;DHT22;4587;51.434;6.788;2023-06-26T05:20:00;23.80;99.90
9103;DHT22;4587;51.434;6.788;2023-06-26T05:22:26;23.80;99.90
9103;DHT22;4587;51.434;6.788;2023-06-26T05:24:54;23.70;99.90
9103;DHT22;4587;51.434;6.788;2023-06-26T05:27:20;23.70;99.90
9103;DHT22;4587;51.434;6.788;2023-06-26T05:29:48;23.60;99.90
9103;DHT22;4587;51.434;6.788;2023-06-26T05:32:16;23.80;99.90
9103;DHT22;4587;51.434;6.788;2023-06-26T05:34:49;24.10;99.90
9103;DHT22;4587;51.434;6.788;2023-06-26T05:37:20;24.30;99.90
9103;DHT22;4587;51.434;6.788;2023-06-26T05:39:46;24.20;99.90
9103;DHT22;4587;51.434;6.788;2023-06-26T05:42:13;24.20;99.90
9103;DHT22;4587;51.434;6.788;2023-06-26T05:44:38;24.20;99.90
9103;DHT22;4587;51.434;6.788;2023-06-26T05:47:04;24.30;99.90
9103;DHT22;4587;51.434;6.788;2023-06-26T05:49:30;24.40;99.90
9103;DHT22;4587;51.434;6.788;2023-06-26T05:51:56;24.40;99.90
9103;DHT22;4587;51.434;6.788;2023-06-26T05:54:23;24.30;99.90
9103;DHT22;4587;51.434;6.788;2023-06-26T05:56:51;24.10;99.90
9103;DHT22;4587;51.434;6.788;2023-06-26T05:59:19;24.10;99.90
9103;DHT22;4587;51.434;6.788;2023-06-26T06:01:44;23.90;99.90
9103;DHT22;4587;51.434;6.788;2023-06-26T06:04:10;23.80;99.90
9103;DHT22;4587;51.434;6.788;2023-06-26T06:06:36;23.80;99.90
9103;DHT22;4587;51.434;6.788;2023-06-26T06:09:01;23.90;99.90
9103;DHT22;4587;51.434;6.788;2023-06-26T06:11:27;24.00;99.90
9103;DHT22;4587;51.434;6.788;2023-06-26T06:16:18;24.30;99.90
9103;DHT22;4587;51.434;6.788;2023-06-26T06:18:44;24.20;99.90
9103;DHT22;4587;51.434;6.788;2023-06-26T06:21:09;24.10;99.90
9103;DHT22;4587;51.434;6.788;2023-06-26T06:23:35;23.90;99.90
9103;DHT22;4587;51.434;6.788;2023-06-26T06:26:00;23.70;99.90
9103;DHT22;4587;51.434;6.788;2023-06-26T06:28:26;24.20;99.90
9103;DHT22;4587;51.434;6.788;2023-06-26T06:30:51;24.70;99.90
9103;DHT22;4587;51.434;6.788;2023-06-26T06:33:17;25.30;99.90
9103;DHT22;4587;51.434;6.788;2023-06-26T06:35:42;26.30;99.90
9103;DHT22;4587;51.434;6.788;2023-06-26T06:38:08;27.10;99.90
9103;DHT22;4587;51.434;6.788;2023-06-26T06:40:34;27.80;99.90
9103;DHT22;4587;51.434;6.788;2023-06-26T06:42:59;28.60;99.90
9103;DHT22;4587;51.434;6.788;2023-06-26T06:45:25;29.40;99.90
9103;DHT22;4587;51.434;6.788;2023-06-26T06:50:16;30.40;99.90
9103;DHT22;4587;51.434;6.788;2023-06-26T06:52:43;29.90;99.90
9103;DHT22;4587;51.434;6.788;2023-06-26T06:55:09;29.00;99.90
9103;DHT22;4587;51.434;6.788;2023-06-26T06:57:36;28.30;99.90
9103;DHT22;4587;51.434;6.788;2023-06-26T07:00:08;27.80;99.90
9103;DHT22;4587;51.434;6.788;2023-06-26T07:02:35;27.80;99.90
9103;DHT22;4587;51.434;6.788;2023-06-26T07:05:02;27.70;99.90
9103;DHT22;4587;51.434;6.788;2023-06-26T07:07:30;27.30;99.90
9103;DHT22;4587;51.434;6.788;2023-06-26T07:10:06;26.80;99.90
9103;DHT22;4587;51.434;6.788;2023-06-26T07:12:33;26.40;99.90
9103;DHT22;4587;51.434;6.788;2023-06-26T07:15:00;26.50;99.90
9103;DHT22;4587;51.434;6.788;2023-06-26T07:17:26;26.60;99.90
9103;DHT22;4587;51.434;6.788;2023-06-26T07:19:51;26.90;99.90
9103;DHT22;4587;51.434;6.788;2023-06-26T07:22:17;27.60;99.90
9103;DHT22;4587;51.434;6.788;2023-06-26T07:24:45;27.90;99.90
9103;DHT22;4587;51.434;6.788;2023-06-26T07:27:11;28.50;99.90
9103;DHT22;4587;51.434;6.788;2023-06-26T07:29:36;28.90;99.90
9103;DHT22;4587;51.434;6.788;2023-06-26T07:32:02;28.90;99.90
9103;DHT22;4587;51.434;6.788;2023-06-26T07:34:28;28.80;99.90
9103;DHT22;4587;51.434;6.788;2023-06-26T07:36:53;28.60;99.90
9103;DHT22;4587;51.434;6.788;2023-06-26T07:39:19;28.90;99.90
9103;DHT22;4587;51.434;6.788;2023-06-26T07:41:44;29.40;99.90
9103;DHT22;4587;51.434;6.788;2023-06-26T07:44:10;29.10;99.90
9103;DHT22;4587;51.434;6.788;2023-06-26T07:46:35;28.40;99.90
9103;DHT22;4587;51.434;6.788;2023-06-26T07:49:01;27.90;99.90
9103;DHT22;4587;51.434;6.788;2023-06-26T07:51:26;28.00;99.90
9103;DHT22;4587;51.434;6.788;2023-06-26T07:53:52;28.50;99.90
9103;DHT22;4587;51.434;6.788;2023-06-26T07:56:18;29.10;99.90
9103;DHT22;4587;51.434;6.788;2023-06-26T07:58:43;29.70;99.90
9103;DHT22;4587;51.434;6.788;2023-06-26T08:01:09;30.60;99.90
9103;DHT22;4587;51.434;6.788;2023-06-26T08:03:34;31.00;99.90
9103;DHT22;4587;51.434;6.788;2023-06-26T08:06:00;30.50;99.90
9103;DHT22;4587;51.434;6.788;2023-06-26T08:08:25;29.70;99.90
9103;DHT22;4587;51.434;6.788;2023-06-26T08:10:51;29.20;99.90
9103;DHT22;4587;51.434;6.788;2023-06-26T08:13:16;28.70;99.90
9103;DHT22;4587;51.434;6.788;2023-06-26T08:15:42;28.20;99.90
9103;DHT22;4587;51.434;6.788;2023-06-26T08:18:07;27.70;99.90
9103;DHT22;4587;51.434;6.788;2023-06-26T08:20:33;27.50;99.90
9103;DHT22;4587;51.434;6.788;2023-06-26T08:23:01;27.50;99.90
9103;DHT22;4587;51.434;6.788;2023-06-26T08:25:26;27.40;99.90
9103;DHT22;4587;51.434;6.788;2023-06-26T08:27:52;27.20;99.90
9103;DHT22;4587;51.434;6.788;2023-06-26T08:30:19;27.10;99.90
9103;DHT22;4587;51.434;6.788;2023-06-26T08:32:44;27.20;99.90
9103;DHT22;4587;51.434;6.788;2023-06-26T08:35:10;27.10;99.90
9103;DHT22;4587;51.434;6.788;2023-06-26T08:37:35;27.00;99.90
9103;DHT22;4587;51.434;6.788;2023-06-26T08:40:01;27.00;99.90
9103;DHT22;4587;51.434;6.788;2023-06-26T08:42:27;26.90;99.90
9103;DHT22;4587;51.434;6.788;2023-06-26T08:44:52;26.80;99.90
9103;DHT22;4587;51.434;6.788;2023-06-26T08:47:19;26.80;99.90
9103;DHT22;4587;51.434;6.788;2023-06-26T08:50:01;27.10;99.90
9103;DHT22;4587;51.434;6.788;2023-06-26T08:52:33;27.40;99.90
9103;DHT22;4587;51.434;6.788;2023-06-26T08:55:02;27.40;99.90
9103;DHT22;4587;51.434;6.788;2023-06-26T08:57:32;27.20;99.90
9103;DHT22;4587;51.434;6.788;2023-06-26T08:59:57;27.10;99.90
9103;DHT22;4587;51.434;6.788;2023-06-26T09:02:23;27.20;99.90
9103;DHT22;4587;51.434;6.788;2023-06-26T09:04:50;27.30;99.90
9103;DHT22;4587;51.434;6.788;2023-06-26T09:07:16;27.30;99.90
9103;DHT22;4587;51.434;6.788;2023-06-26T09:09:41;27.20;99.90
9103;DHT22;4587;51.434;6.788;2023-06-26T09:12:09;27.20;99.90
9103;DHT22;4587;51.434;6.788;2023-06-26T09:14:36;27.20;99.90
9103;DHT22;4587;51.434;6.788;2023-06-26T09:17:01;27.30;99.90
9103;DHT22;4587;51.434;6.788;2023-06-26T09:19:27;27.20;99.90
9103;DHT22;4587;51.434;6.788;2023-06-26T09:21:54;27.00;99.90
9103;DHT22;4587;51.434;6.788;2023-06-26T09:24:21;27.00;99.90
9103;DHT22;4587;51.434;6.788;2023-06-26T09:26:47;27.00;99.90
9103;DHT22;4587;51.434;6.788;2023-06-26T09:29:14;27.20;99.90
9103;DHT22;4587;51.434;6.788;2023-06-26T09:31:40;27.40;99.90
9103;DHT22;4587;51.434;6.788;2023-06-26T09:34:06;27.50;99.90
9103;DHT22;4587;51.434;6.788;2023-06-26T09:36:32;27.70;99.90
9103;DHT22;4587;51.434;6.788;2023-06-26T09:39:06;27.70;99.90
9103;DHT22;4587;51.434;6.788;2023-06-26T09:41:36;27.60;99.90
9103;DHT22;4587;51.434;6.788;2023-06-26T09:44:02;27.50;99.90
9103;DHT22;4587;51.434;6.788;2023-06-26T09:46:29;27.60;99.90
9103;DHT22;4587;51.434;6.788;2023-06-26T09:49:07;27.50;99.90
9103;DHT22;4587;51.434;6.788;2023-06-26T09:51:36;27.20;99.90
9103;DHT22;4587;51.434;6.788;2023-06-26T09:54:03;27.20;99.90
9103;DHT22;4587;51.434;6.788;2023-06-26T09:56:30;27.30;99.90
9103;DHT22;4587;51.434;6.788;2023-06-26T09:58:57;27.40;99.90
9103;DHT22;4587;51.434;6.788;2023-06-26T10:01:24;27.60;99.90
9103;DHT22;4587;51.434;6.788;2023-06-26T10:03:49;27.70;99.90
9103;DHT22;4587;51.434;6.788;2023-06-26T10:06:19;27.70;99.90
9103;DHT22;4587;51.434;6.788;2023-06-26T10:08:47;27.90;99.90
9103;DHT22;4587;51.434;6.788;2023-06-26T10:11:16;28.00;99.90
9103;DHT22;4587;51.434;6.788;2023-06-26T10:13:45;28.00;99.90
9103;DHT22;4587;51.434;6.788;2023-06-26T10:16:13;28.00;99.90
9103;DHT22;4587;51.434;6.788;2023-06-26T10:18:42;28.00;99.90
9103;DHT22;4587;51.434;6.788;2023-06-26T10:21:09;28.10;99.90
9103;DHT22;4587;51.434;6.788;2023-06-26T10:23:36;28.10;99.90
9103;DHT22;4587;51.434;6.788;2023-06-26T10:26:05;28.00;99.90
9103;DHT22;4587;51.434;6.788;2023-06-26T10:28:33;27.80;99.90
9103;DHT22;4587;51.434;6.788;2023-06-26T10:31:01;27.80;99.90
9103;DHT22;4587;51.434;6.788;2023-06-26T10:33:27;27.80;99.90
9103;DHT22;4587;51.434;6.788;2023-06-26T10:35:54;27.80;99.90
9103;DHT22;4587;51.434;6.788;2023-06-26T10:39:04;27.90;99.90
9103;DHT22;4587;51.434;6.788;2023-06-26T10:41:40;27.90;99.90
9103;DHT22;4587;51.434;6.788;2023-06-26T10:44:11;27.80;99.90
9103;DHT22;4587;51.434;6.788;2023-06-26T10:46:56;27.50;99.90
9103;DHT22;4587;51.434;6.788;2023-06-26T10:49:28;27.40;99.90
9103;DHT22;4587;51.434;6.788;2023-06-26T10:51:54;27.30;99.80
9103;DHT22;4587;51.434;6.788;2023-06-26T10:54:23;27.40;99.90
9103;DHT22;4587;51.434;6.788;2023-06-26T10:56:55;27.60;99.90
9103;DHT22;4587;51.434;6.788;2023-06-26T10:59:28;27.60;99.90
9103;DHT22;4587;51.434;6.788;2023-06-26T11:02:02;27.60;99.20
9103;DHT22;4587;51.434;6.788;2023-06-26T11:04:45;27.70;98.90
9103;DHT22;4587;51.434;6.788;2023-06-26T11:07:24;27.60;98.10
9103;DHT22;4587;51.434;6.788;2023-06-26T11:10:22;27.60;98.70
9103;DHT22;4587;51.434;6.788;2023-06-26T11:12:48;27.60;98.90
9103;DHT22;4587;51.434;6.788;2023-06-26T11:15:16;27.60;98.40
9103;DHT22;4587;51.434;6.788;2023-06-26T11:17:42;27.60;98.90
9103;DHT22;4587;51.434;6.788;2023-06-26T11:20:13;27.60;97.40
9103;DHT22;4587;51.434;6.788;2023-06-26T11:22:40;27.60;96.40
9103;DHT22;4587;51.434;6.788;2023-06-26T11:25:07;27.60;97.40
9103;DHT22;4587;51.434;6.788;2023-06-26T11:27:43;27.60;97.50
9103;DHT22;4587;51.434;6.788;2023-06-26T11:30:11;27.40;97.80
9103;DHT22;4587;51.434;6.788;2023-06-26T11:32:40;27.20;98.10
9103;DHT22;4587;51.434;6.788;2023-06-26T11:35:05;27.10;97.50
9103;DHT22;4587;51.434;6.788;2023-06-26T11:37:32;27.10;97.50
9103;DHT22;4587;51.434;6.788;2023-06-26T11:39:58;27.20;97.40
9103;DHT22;4587;51.434;6.788;2023-06-26T11:42:23;27.20;96.40
9103;DHT22;4587;51.434;6.788;2023-06-26T11:44:51;27.20;96.10
9103;DHT22;4587;51.434;6.788;2023-06-26T11:47:19;27.10;94.60
9103;DHT22;4587;51.434;6.788;2023-06-26T11:49:46;26.90;93.90
9103;DHT22;4587;51.434;6.788;2023-06-26T11:52:13;26.80;93.60
9103;DHT22;4587;51.434;6.788;2023-06-26T11:54:39;26.80;94.10
9103;DHT22;4587;51.434;6.788;2023-06-26T11:57:05;26.90;93.90
9103;DHT22;4587;51.434;6.788;2023-06-26T11:59:38;27.00;94.70
9103;DHT22;4587;51.434;6.788;2023-06-26T12:02:12;27.00;95.10
9103;DHT22;4587;51.434;6.788;2023-06-26T12:04:41;27.00;95.00
9103;DHT22;4587;51.434;6.788;2023-06-26T12:07:08;26.90;94.90
9103;DHT22;4587;51.434;6.788;2023-06-26T12:09:43;26.80;92.70
9103;DHT22;4587;51.434;6.788;2023-06-26T12:12:14;26.60;92.80
9103;DHT22;4587;51.434;6.788;2023-06-26T12:14:41;26.80;92.20
9103;DHT22;4587;51.434;6.788;2023-06-26T12:17:11;26.70;90.30
9103;DHT22;4587;51.434;6.788;2023-06-26T12:19:38;26.80;90.90
9103;DHT22;4587;51.434;6.788;2023-06-26T12:22:07;26.80;87.40
9103;DHT22;4587;51.434;6.788;2023-06-26T12:24:33;27.00;87.20
9103;DHT22;4587;51.434;6.788;2023-06-26T12:27:01;27.20;87.50
9103;DHT22;4587;51.434;6.788;2023-06-26T12:29:33;27.20;87.00
9103;DHT22;4587;51.434;6.788;2023-06-26T12:31:59;27.20;89.00
9103;DHT22;4587;51.434;6.788;2023-06-26T12:34:33;27.10;88.50
9103;DHT22;4587;51.434;6.788;2023-06-26T12:37:09;26.90;90.00
9103;DHT22;4587;51.434;6.788;2023-06-26T12:42:18;27.20;89.80
9103;DHT22;4587;51.434;6.788;2023-06-26T12:44:44;27.20;89.80
9103;DHT22;4587;51.434;6.788;2023-06-26T12:47:10;27.10;87.70
9103;DHT22;4587;51.434;6.788;2023-06-26T12:49:39;26.80;87.30
9103;DHT22;4587;51.434;6.788;2023-06-26T12:52:07;26.60;88.50
9103;DHT22;4587;51.434;6.788;2023-06-26T12:54:34;26.60;87.20
9103;DHT22;4587;51.434;6.788;2023-06-26T12:57:00;26.70;86.00
9103;DHT22;4587;51.434;6.788;2023-06-26T12:59:26;26.50;86.90
9103;DHT22;4587;51.434;6.788;2023-06-26T13:01:52;26.50;85.30
9103;DHT22;4587;51.434;6.788;2023-06-26T13:04:18;26.40;85.90
9103;DHT22;4587;51.434;6.788;2023-06-26T13:06:44;26.40;85.20
9103;DHT22;4587;51.434;6.788;2023-06-26T13:09:09;26.40;85.10
9103;DHT22;4587;51.434;6.788;2023-06-26T13:11:36;26.40;83.80
9103;DHT22;4587;51.434;6.788;2023-06-26T13:14:02;26.40;84.60
9103;DHT22;4587;51.434;6.788;2023-06-26T13:16:28;26.50;87.40
9103;DHT22;4587;51.434;6.788;2023-06-26T13:18:54;26.70;85.20
9103;DHT22;4587;51.434;6.788;2023-06-26T13:21:21;26.80;83.20
9103;DHT22;4587;51.434;6.788;2023-06-26T13:23:46;26.90;86.00
9103;DHT22;4587;51.434;6.788;2023-06-26T13:26:12;27.00;85.90
9103;DHT22;4587;51.434;6.788;2023-06-26T13:28:38;27.00;87.60
9103;DHT22;4587;51.434;6.788;2023-06-26T13:31:04;27.10;88.10
9103;DHT22;4587;51.434;6.788;2023-06-26T13:33:30;27.20;85.10
9103;DHT22;4587;51.434;6.788;2023-06-26T13:35:56;27.20;84.20
9103;DHT22;4587;51.434;6.788;2023-06-26T13:38:23;27.20;83.90
9103;DHT22;4587;51.434;6.788;2023-06-26T13:40:52;27.10;83.00
9103;DHT22;4587;51.434;6.788;2023-06-26T13:43:18;27.10;82.20
9103;DHT22;4587;51.434;6.788;2023-06-26T13:45:44;27.00;82.10
9103;DHT22;4587;51.434;6.788;2023-06-26T13:48:09;26.90;81.40
9103;DHT22;4587;51.434;6.788;2023-06-26T13:50:35;26.70;81.20
9103;DHT22;4587;51.434;6.788;2023-06-26T13:53:00;26.70;82.90
9103;DHT22;4587;51.434;6.788;2023-06-26T13:55:28;26.70;80.20
9103;DHT22;4587;51.434;6.788;2023-06-26T13:57:54;26.80;80.60
9103;DHT22;4587;51.434;6.788;2023-06-26T14:00:21;26.90;81.50
9103;DHT22;4587;51.434;6.788;2023-06-26T14:02:49;27.00;78.90
9103;DHT22;4587;51.434;6.788;2023-06-26T14:05:15;27.00;79.80
9103;DHT22;4587;51.434;6.788;2023-06-26T14:07:40;26.70;80.00
9103;DHT22;4587;51.434;6.788;2023-06-26T14:10:09;26.50;81.30
9103;DHT22;4587;51.434;6.788;2023-06-26T14:12:34;26.40;81.50
9103;DHT22;4587;51.434;6.788;2023-06-26T14:15:00;26.50;80.40
9103;DHT22;4587;51.434;6.788;2023-06-26T14:17:26;26.50;81.10
9103;DHT22;4587;51.434;6.788;2023-06-26T14:19:52;26.50;82.10
9103;DHT22;4587;51.434;6.788;2023-06-26T14:22:18;26.50;81.80
9103;DHT22;4587;51.434;6.788;2023-06-26T14:24:43;26.60;80.20
9103;DHT22;4587;51.434;6.788;2023-06-26T14:27:10;26.50;79.70
9103;DHT22;4587;51.434;6.788;2023-06-26T14:29:36;26.50;80.80
9103;DHT22;4587;51.434;6.788;2023-06-26T14:32:02;26.60;77.30
9103;DHT22;4587;51.434;6.788;2023-06-26T14:34:28;26.50;75.70
9103;DHT22;4587;51.434;6.788;2023-06-26T14:36:53;26.40;76.00
9103;DHT22;4587;51.434;6.788;2023-06-26T14:39:19;26.20;76.40
9103;DHT22;4587;51.434;6.788;2023-06-26T14:41:44;26.20;78.30
9103;DHT22;4587;51.434;6.788;2023-06-26T14:44:10;26.10;79.60
9103;DHT22;4587;51.434;6.788;2023-06-26T14:46:36;26.10;79.70
9103;DHT22;4587;51.434;6.788;2023-06-26T14:49:02;26.00;81.50
9103;DHT22;4587;51.434;6.788;2023-06-26T14:51:28;26.00;78.00
9103;DHT22;4587;51.434;6.788;2023-06-26T14:53:54;26.00;77.20
9103;DHT22;4587;51.434;6.788;2023-06-26T14:56:19;25.90;76.50
9103;DHT22;4587;51.434;6.788;2023-06-26T14:58:45;25.90;74.70
9103;DHT22;4587;51.434;6.788;2023-06-26T15:01:12;25.90;74.20
9103;DHT22;4587;51.434;6.788;2023-06-26T15:03:40;26.00;73.40
9103;DHT22;4587;51.434;6.788;2023-06-26T15:06:06;26.00;71.90
9103;DHT22;4587;51.434;6.788;2023-06-26T15:08:31;26.00;73.70
9103;DHT22;4587;51.434;6.788;2023-06-26T15:10:57;26.10;79.80
9103;DHT22;4587;51.434;6.788;2023-06-26T15:13:22;26.10;84.20
9103;DHT22;4587;51.434;6.788;2023-06-26T15:15:48;26.20;85.70
9103;DHT22;4587;51.434;6.788;2023-06-26T15:18:13;26.10;85.50
9103;DHT22;4587;51.434;6.788;2023-06-26T15:20:39;26.10;84.10
9103;DHT22;4587;51.434;6.788;2023-06-26T15:23:05;26.00;84.20
9103;DHT22;4587;51.434;6.788;2023-06-26T15:25:30;26.00;83.50
9103;DHT22;4587;51.434;6.788;2023-06-26T15:27:57;26.10;81.80
9103;DHT22;4587;51.434;6.788;2023-06-26T15:30:22;26.10;80.10
9103;DHT22;4587;51.434;6.788;2023-06-26T15:32:48;26.00;80.00
9103;DHT22;4587;51.434;6.788;2023-06-26T15:35:13;25.90;80.70
9103;DHT22;4587;51.434;6.788;2023-06-26T15:37:39;25.90;82.20
9103;DHT22;4587;51.434;6.788;2023-06-26T15:40:05;25.80;79.90
9103;DHT22;4587;51.434;6.788;2023-06-26T15:42:31;25.80;81.30
9103;DHT22;4587;51.434;6.788;2023-06-26T15:44:57;25.60;81.80
9103;DHT22;4587;51.434;6.788;2023-06-26T15:47:23;25.60;82.60
9103;DHT22;4587;51.434;6.788;2023-06-26T15:49:49;25.50;83.20
9103;DHT22;4587;51.434;6.788;2023-06-26T15:52:14;25.40;83.60
9103;DHT22;4587;51.434;6.788;2023-06-26T15:54:40;25.20;83.90
9103;DHT22;4587;51.434;6.788;2023-06-26T15:57:06;25.20;84.00
9103;DHT22;4587;51.434;6.788;2023-06-26T15:59:31;25.20;85.40
9103;DHT22;4587;51.434;6.788;2023-06-26T16:01:57;25.00;85.60
9103;DHT22;4587;51.434;6.788;2023-06-26T16:04:22;25.00;86.70
9103;DHT22;4587;51.434;6.788;2023-06-26T16:06:48;25.10;86.20
9103;DHT22;4587;51.434;6.788;2023-06-26T16:09:13;25.20;87.30
9103;DHT22;4587;51.434;6.788;2023-06-26T16:11:40;25.20;87.70
9103;DHT22;4587;51.434;6.788;2023-06-26T16:14:05;25.20;86.10
9103;DHT22;4587;51.434;6.788;2023-06-26T16:16:31;25.20;87.00
9103;DHT22;4587;51.434;6.788;2023-06-26T16:18:56;25.20;87.90
9103;DHT22;4587;51.434;6.788;2023-06-26T16:21:22;25.10;87.70